Time;durP1;ratioP1;P1;durP2;ratioP2;P2;SDS_P1;SDS_P2;PMS_P1;PMS_P2;Temp;Humidity;BMP_temperature;BMP_pressure;BME280_temperature;BME280_humidity;BME280_pressure;Samples;Min_cycle;Max_cycle;Signal;HPM_P1;HPM_P2
2022/05/21 00:01:42;;;;;;;12.57;4.83;;;15.50;91.90;;;;;;5074549;28;20207;-76
2022/05/21 00:04:10;;;;;;;12.03;4.70;;;15.40;92.10;;;;;;5059872;28;20180;-76
2022/05/21 00:06:38;;;;;;;11.17;4.47;;;15.50;92.20;;;;;;5065245;28;20181;-76
2022/05/21 00:09:06;;;;;;;9.03;4.00;;;15.60;92.20;;;;;;5071941;28;20181;-76
2022/05/21 00:11:33;;;;;;;10.37;3.97;;;15.70;92.10;;;;;;5069648;28;20213;-76
2022/05/21 00:14:00;;;;;;;13.97;4.77;;;15.60;92.10;;;;;;5067218;28;20190;-75
2022/05/21 00:16:29;;;;;;;10.00;4.60;;;15.70;92.20;;;;;;5071854;28;20268;-77
2022/05/21 00:18:57;;;;;;;12.40;4.97;;;15.80;92.10;;;;;;5070056;28;20276;-80
2022/05/21 00:21:25;;;;;;;11.87;4.83;;;16.10;91.90;;;;;;5070442;28;20615;-77
2022/05/21 00:23:53;;;;;;;13.93;4.27;;;16.30;91.30;;;;;;5069546;28;20188;-78
2022/05/21 00:26:21;;;;;;;12.93;3.90;;;16.20;90.30;;;;;;5070809;28;20217;-79
2022/05/21 00:28:50;;;;;;;13.20;4.07;;;16.20;89.20;;;;;;5071103;28;20189;-81
2022/05/21 00:31:19;;;;;;;7.77;3.50;;;16.30;89.60;;;;;;5090264;28;20275;-82
2022/05/21 00:33:47;;;;;;;8.17;3.97;;;16.70;89.30;;;;;;5066114;28;20178;-78
2022/05/21 00:36:15;;;;;;;8.30;3.53;;;17.00;88.40;;;;;;5078861;28;20573;-78
2022/05/21 00:38:43;;;;;;;9.07;3.30;;;17.20;88.30;;;;;;5074774;28;20221;-81
2022/05/21 00:41:15;;;;;;;12.10;4.13;;;17.00;87.60;;;;;;5058955;28;20273;-80
2022/05/21 00:43:53;;;;;;;8.93;4.00;;;17.10;87.80;;;;;;5088896;28;20235;-79
2022/05/21 00:46:33;;;;;;;6.53;2.80;;;17.50;87.70;;;;;;5070187;28;20178;-81
2022/05/21 00:49:22;;;;;;;9.30;3.63;;;17.80;85.80;;;;;;5074583;28;20170;-78
2022/05/21 00:52:00;;;;;;;8.73;3.73;;;18.20;85.20;;;;;;5074858;28;20195;-80
2022/05/21 00:54:41;;;;;;;10.20;3.20;;;18.20;84.00;;;;;;5073898;28;20233;-82
2022/05/21 00:57:27;;;;;;;11.97;3.40;;;18.20;84.30;;;;;;5073128;28;20531;-79
2022/05/21 01:00:10;;;;;;;8.27;3.07;;;18.30;83.70;;;;;;5073750;28;20175;-81
2022/05/21 01:02:52;;;;;;;5.67;2.30;;;18.30;82.60;;;;;;5073870;28;20194;-88
2022/05/21 01:05:23;;;;;;;8.13;2.90;;;18.10;82.10;;;;;;5078811;28;20322;-78
2022/05/21 01:07:54;;;;;;;7.90;2.37;;;18.00;82.20;;;;;;5071752;28;20539;-77
2022/05/21 01:10:24;;;;;;;9.97;2.90;;;17.90;83.30;;;;;;5073174;28;20187;-78
2022/05/21 01:12:55;;;;;;;8.60;2.03;;;17.90;83.60;;;;;;5072089;28;20665;-78
2022/05/21 01:15:29;;;;;;;6.20;2.13;;;17.90;83.70;;;;;;5080203;28;20193;-76
2022/05/21 01:17:56;;;;;;;15.43;3.40;;;17.90;83.60;;;;;;5081424;28;20540;-77
2022/05/21 01:20:35;;;;;;;11.83;3.00;;;17.90;83.60;;;;;;5090098;28;20269;-77
2022/05/21 01:23:02;;;;;;;10.60;2.73;;;17.90;84.20;;;;;;5079058;28;20191;-81
2022/05/21 01:25:31;;;;;;;12.23;2.93;;;17.80;83.80;;;;;;5074162;28;20171;-79
2022/05/21 01:27:59;;;;;;;9.73;2.87;;;17.80;84.40;;;;;;5060953;28;20224;-76
2022/05/21 01:30:37;;;;;;;7.67;2.40;;;17.80;84.70;;;;;;5058552;28;20203;-78
2022/05/21 01:33:10;;;;;;;10.20;3.23;;;17.70;83.80;;;;;;5058749;28;20192;-80
2022/05/21 01:35:39;;;;;;;12.17;2.93;;;17.70;84.30;;;;;;5070419;28;20160;-84
2022/05/21 01:38:07;;;;;;;8.43;2.30;;;17.80;84.90;;;;;;5075885;28;20187;-82
2022/05/21 01:40:36;;;;;;;11.67;2.50;;;17.80;85.10;;;;;;5073988;28;20207;-85
2022/05/21 01:45:53;;;;;;;10.40;2.57;;;17.80;85.30;;;;;;5075129;28;20190;-80
2022/05/21 01:48:23;;;;;;;11.07;2.93;;;17.80;84.90;;;;;;5080084;28;20188;-87
2022/05/21 01:50:52;;;;;;;7.87;2.00;;;17.90;83.70;;;;;;5069505;28;20215;-76
2022/05/21 01:53:21;;;;;;;6.87;1.70;;;17.90;80.80;;;;;;5074639;28;20183;-87
2022/05/21 01:55:50;;;;;;;8.60;1.87;;;18.00;79.30;;;;;;5074582;28;20633;-86
2022/05/21 01:58:18;;;;;;;4.23;1.53;;;18.20;77.30;;;;;;5073830;28;20202;-82
2022/05/21 02:00:46;;;;;;;5.77;1.40;;;18.30;75.00;;;;;;5087478;28;20207;-85
2022/05/21 02:03:14;;;;;;;9.33;2.40;;;18.30;74.20;;;;;;5076530;28;20189;-87
2022/05/21 02:05:46;;;;;;;3.73;1.30;;;18.40;74.20;;;;;;5085693;28;20186;-76
2022/05/21 02:08:15;;;;;;;6.97;1.70;;;18.50;72.80;;;;;;5092976;28;20644;-83
2022/05/21 02:10:43;;;;;;;5.93;1.57;;;18.50;71.50;;;;;;5072616;28;20231;-85
2022/05/21 02:13:19;;;;;;;3.77;1.20;;;18.50;71.00;;;;;;5053289;28;20180;-81
2022/05/21 02:15:46;;;;;;;5.87;1.40;;;18.60;69.80;;;;;;5054126;28;20183;-80
2022/05/21 02:18:14;;;;;;;6.77;1.23;;;18.60;70.20;;;;;;5053852;28;20183;-82
2022/05/21 02:20:42;;;;;;;4.60;1.20;;;18.70;70.00;;;;;;5053145;28;20195;-82
2022/05/21 02:23:11;;;;;;;3.83;1.13;;;18.70;70.20;;;;;;5070303;28;20179;-82
2022/05/21 02:25:38;;;;;;;5.10;1.10;;;18.70;70.60;;;;;;5073671;28;20309;-80
2022/05/21 02:28:06;;;;;;;5.67;1.63;;;18.80;69.50;;;;;;5071930;28;20181;-80
2022/05/21 02:30:34;;;;;;;6.50;2.07;;;18.80;68.40;;;;;;5072634;28;20168;-83
2022/05/21 02:33:02;;;;;;;5.90;1.60;;;18.80;68.80;;;;;;5072559;28;20210;-81
2022/05/21 02:35:29;;;;;;;6.47;1.23;;;18.80;69.80;;;;;;5072171;28;20199;-78
2022/05/21 02:40:42;;;;;;;5.00;1.87;;;18.80;66.20;;;;;;5074716;28;20266;-77
2022/05/21 02:43:09;;;;;;;6.00;1.90;;;18.80;65.70;;;;;;5068326;28;20629;-78
2022/05/21 02:45:37;;;;;;;7.70;3.40;;;18.80;65.60;;;;;;5068914;28;20324;-80
2022/05/21 02:48:05;;;;;;;5.67;1.40;;;18.80;65.90;;;;;;5077859;28;20189;-79
2022/05/21 02:50:35;;;;;;;6.57;1.43;;;18.80;64.90;;;;;;5065533;28;20186;-79
2022/05/21 02:53:08;;;;;;;3.43;1.23;;;18.80;66.60;;;;;;5069143;28;20634;-77
2022/05/21 02:55:35;;;;;;;5.07;1.20;;;18.70;66.40;;;;;;5072354;28;20186;-77
2022/05/21 02:58:04;;;;;;;5.00;1.07;;;18.70;66.50;;;;;;5071281;28;20179;-79
2022/05/21 03:00:32;;;;;;;4.47;1.37;;;18.70;66.10;;;;;;5069632;28;20179;-77
2022/05/21 03:03:00;;;;;;;3.87;1.53;;;18.70;66.60;;;;;;5069759;28;20229;-75
2022/05/21 03:05:31;;;;;;;6.03;1.37;;;18.70;67.10;;;;;;5062957;28;20270;-77
2022/05/21 03:10:20;;;;;;;3.00;1.10;;;18.70;68.90;;;;;;5076360;28;20187;-78
2022/05/21 03:10:53;;;;;;;6.03;1.47;;;18.60;70.60;;;;;;5071402;28;20226;-75
2022/05/21 03:13:20;;;;;;;6.37;1.60;;;18.60;71.40;;;;;;5071934;28;20187;-77
2022/05/21 03:15:48;;;;;;;7.23;1.43;;;18.60;72.30;;;;;;5070935;28;20187;-75
2022/05/21 03:18:16;;;;;;;8.70;1.30;;;18.50;73.60;;;;;;5072328;28;20175;-84
2022/05/21 03:20:43;;;;;;;8.00;1.77;;;18.40;75.30;;;;;;5072357;28;20744;-81
2022/05/21 03:23:12;;;;;;;6.70;1.50;;;18.30;77.20;;;;;;5069541;28;20182;-80
2022/05/21 03:25:41;;;;;;;5.87;1.30;;;18.20;78.00;;;;;;5071782;28;20203;-80
2022/05/21 03:28:12;;;;;;;5.87;1.30;;;18.20;77.70;;;;;;5061694;28;20272;-75
2022/05/21 03:30:40;;;;;;;5.87;1.37;;;18.20;77.60;;;;;;5087373;28;20579;-77
2022/05/21 03:33:07;;;;;;;4.60;1.20;;;18.20;76.40;;;;;;5078541;28;20168;-82
2022/05/21 03:35:35;;;;;;;8.83;1.60;;;18.30;76.20;;;;;;5070694;28;20265;-80
2022/05/21 03:38:02;;;;;;;8.00;1.50;;;18.30;75.20;;;;;;5066322;28;20298;-74
2022/05/21 03:40:32;;;;;;;5.77;1.53;;;18.40;74.50;;;;;;5071523;28;20174;-80
2022/05/21 03:42:59;;;;;;;6.57;1.60;;;18.60;75.70;;;;;;5071777;28;20581;-79
2022/05/21 03:45:27;;;;;;;7.03;1.07;;;18.60;75.40;;;;;;5071507;28;20262;-79
2022/05/21 03:47:55;;;;;;;7.83;1.50;;;18.60;73.90;;;;;;5071641;28;20179;-79
2022/05/21 03:50:25;;;;;;;5.00;1.40;;;18.60;74.20;;;;;;5071704;28;20191;-81
2022/05/21 03:52:53;;;;;;;3.20;1.40;;;18.50;73.90;;;;;;5071848;28;20642;-73
2022/05/21 03:55:20;;;;;;;5.63;1.13;;;18.50;74.40;;;;;;5070337;28;20266;-79
2022/05/21 03:57:48;;;;;;;6.00;1.07;;;18.50;73.60;;;;;;5070870;28;20187;-76
2022/05/21 04:00:17;;;;;;;4.87;1.07;;;18.40;74.10;;;;;;5074305;28;20182;-80
2022/05/21 04:02:44;;;;;;;10.13;2.00;;;18.40;74.50;;;;;;5075842;28;20186;-80
2022/05/21 04:05:14;;;;;;;5.10;1.30;;;18.30;74.50;;;;;;5065351;28;20224;-79
2022/05/21 04:07:41;;;;;;;5.70;1.40;;;18.30;74.70;;;;;;5081880;28;20258;-79
2022/05/21 04:10:10;;;;;;;5.97;1.40;;;18.20;75.00;;;;;;5071092;28;20179;-77
2022/05/21 04:12:38;;;;;;;4.50;1.67;;;18.00;75.60;;;;;;5063373;28;20179;-77
2022/05/21 04:15:06;;;;;;;7.00;1.47;;;17.80;76.30;;;;;;5072489;28;20186;-78
2022/05/21 04:17:35;;;;;;;3.90;1.37;;;17.70;77.00;;;;;;5073706;28;20644;-79
2022/05/21 04:20:05;;;;;;;6.67;1.70;;;17.50;78.30;;;;;;5079425;28;20187;-78
2022/05/21 04:22:33;;;;;;;5.80;1.20;;;17.50;79.40;;;;;;5082616;28;20218;-77
2022/05/21 04:25:01;;;;;;;4.87;1.40;;;17.40;79.20;;;;;;5069098;28;20187;-77
2022/05/21 04:27:28;;;;;;;4.33;1.60;;;17.40;79.70;;;;;;5074836;28;20262;-77
2022/05/21 04:29:55;;;;;;;6.00;1.73;;;17.50;79.60;;;;;;5065916;28;20289;-79
2022/05/21 04:32:23;;;;;;;4.60;1.23;;;17.50;79.30;;;;;;5054794;28;20243;-76
2022/05/21 04:34:50;;;;;;;3.07;1.27;;;17.50;77.90;;;;;;5071043;28;20270;-78
2022/05/21 04:37:19;;;;;;;4.13;1.47;;;17.60;77.60;;;;;;5057761;28;20168;-77
2022/05/21 04:39:47;;;;;;;7.23;1.90;;;17.60;77.40;;;;;;5095237;28;20636;-79
2022/05/21 04:42:14;;;;;;;9.33;1.40;;;17.70;77.50;;;;;;5084838;28;20638;-77
2022/05/21 04:44:41;;;;;;;4.90;1.30;;;17.70;76.70;;;;;;5083207;28;20194;-82
2022/05/21 04:47:09;;;;;;;3.50;1.40;;;17.70;76.20;;;;;;5055677;28;20677;-77
2022/05/21 04:49:36;;;;;;;2.97;1.47;;;17.70;75.70;;;;;;5062326;28;20648;-81
2022/05/21 04:52:04;;;;;;;7.30;1.37;;;17.70;75.20;;;;;;5075891;28;20179;-80
2022/05/21 04:54:32;;;;;;;3.20;1.23;;;17.70;75.70;;;;;;5077210;28;20181;-77
2022/05/21 04:57:00;;;;;;;1.73;0.90;;;17.70;76.50;;;;;;5086215;28;20249;-77
2022/05/21 04:59:28;;;;;;;3.80;1.20;;;17.70;76.50;;;;;;5085865;28;20190;-76
2022/05/21 05:01:56;;;;;;;9.77;1.67;;;17.80;77.20;;;;;;5069794;28;20309;-78
2022/05/21 05:04:23;;;;;;;4.97;1.53;;;17.80;77.50;;;;;;5064852;28;20183;-79
2022/05/21 05:06:51;;;;;;;5.40;1.63;;;17.90;77.50;;;;;;5089807;28;20208;-78
2022/05/21 05:09:22;;;;;;;5.37;1.40;;;17.90;77.60;;;;;;5093478;28;20223;-79
2022/05/21 05:11:51;;;;;;;5.60;1.60;;;17.90;77.70;;;;;;5074747;28;20676;-76
2022/05/21 05:14:19;;;;;;;5.67;1.50;;;18.00;77.70;;;;;;5070426;28;20599;-77
2022/05/21 05:16:47;;;;;;;9.87;1.70;;;18.00;77.70;;;;;;5071185;28;20183;-77
2022/05/21 05:19:14;;;;;;;7.27;2.00;;;17.90;77.70;;;;;;5065874;28;20191;-77
2022/05/21 05:21:41;;;;;;;6.10;1.60;;;17.90;78.00;;;;;;5067525;28;20226;-78
2022/05/21 05:24:08;;;;;;;11.73;2.73;;;17.80;78.50;;;;;;5070746;28;20184;-76
2022/05/21 05:26:36;;;;;;;6.57;2.30;;;17.80;79.20;;;;;;5072782;28;20278;-78
2022/05/21 05:29:05;;;;;;;7.37;2.30;;;17.70;79.50;;;;;;5070222;28;20183;-77
2022/05/21 05:31:33;;;;;;;5.07;2.30;;;17.70;80.90;;;;;;5073771;28;20217;-77
2022/05/21 05:34:00;;;;;;;5.80;1.57;;;17.60;82.00;;;;;;5072892;28;20203;-76
2022/05/21 05:36:28;;;;;;;8.67;2.13;;;17.50;82.00;;;;;;5074214;28;20215;-75
2022/05/21 05:38:59;;;;;;;8.20;2.30;;;17.50;82.10;;;;;;5073560;28;20183;-75
2022/05/21 05:41:28;;;;;;;7.63;2.20;;;17.40;82.30;;;;;;5073821;28;20211;-75
2022/05/21 05:43:57;;;;;;;5.63;1.97;;;17.40;82.30;;;;;;5072277;28;20241;-74
2022/05/21 05:46:24;;;;;;;7.10;1.60;;;17.30;81.90;;;;;;5073567;28;20638;-72
2022/05/21 05:48:52;;;;;;;6.00;1.43;;;17.30;78.20;;;;;;5073273;28;20189;-74
2022/05/21 05:51:19;;;;;;;5.80;1.30;;;17.30;78.90;;;;;;5072816;28;20176;-75
2022/05/21 05:53:48;;;;;;;5.10;1.60;;;17.30;79.20;;;;;;5063535;28;20552;-76
2022/05/21 05:56:16;;;;;;;5.83;1.27;;;17.30;80.00;;;;;;5074652;28;20262;-75
2022/05/21 06:01:29;;;;;;;4.73;1.03;;;17.20;79.60;;;;;;5064739;28;20261;-76
2022/05/21 06:03:56;;;;;;;2.77;1.03;;;17.30;79.20;;;;;;5073288;28;20211;-76
2022/05/21 06:06:24;;;;;;;2.77;1.30;;;17.20;79.20;;;;;;5073612;28;20179;-74
2022/05/21 06:08:51;;;;;;;5.83;1.73;;;17.20;80.20;;;;;;5072795;28;20171;-75
2022/05/21 06:11:19;;;;;;;5.23;3.37;;;17.00;80.30;;;;;;5053349;28;20237;-76
2022/05/21 06:13:46;;;;;;;11.53;3.40;;;16.90;81.30;;;;;;5060653;28;20201;-79
2022/05/21 06:16:15;;;;;;;8.80;2.03;;;16.80;82.90;;;;;;5072732;28;20191;-73
2022/05/21 06:18:43;;;;;;;13.33;2.67;;;16.60;84.60;;;;;;5072794;28;20179;-73
2022/05/21 06:21:11;;;;;;;6.93;2.00;;;16.50;85.60;;;;;;5072830;28;20310;-74
2022/05/21 06:23:39;;;;;;;11.80;6.37;;;16.30;87.00;;;;;;5068247;28;20182;-73
2022/05/21 06:26:09;;;;;;;11.57;4.17;;;16.10;88.50;;;;;;5072705;28;20173;-73
2022/05/21 06:28:37;;;;;;;10.70;2.90;;;15.90;89.40;;;;;;5072728;28;20605;-73
2022/05/21 06:31:04;;;;;;;9.80;2.53;;;15.90;90.20;;;;;;5081682;28;20178;-73
2022/05/21 06:33:32;;;;;;;7.17;1.53;;;15.80;90.30;;;;;;5088530;28;20619;-72
2022/05/21 06:36:12;;;;;;;9.53;2.00;;;15.80;90.20;;;;;;5089813;28;20200;-75
2022/05/21 06:38:41;;;;;;;8.00;2.00;;;15.80;90.40;;;;;;5066640;28;20747;-73
2022/05/21 06:41:09;;;;;;;9.33;2.47;;;15.80;90.70;;;;;;5081260;28;20299;-72
2022/05/21 06:43:37;;;;;;;6.87;2.70;;;15.90;90.80;;;;;;5069670;28;20232;-72
2022/05/21 06:46:05;;;;;;;18.63;8.47;;;15.80;90.80;;;;;;5090100;28;20179;-71
2022/05/21 06:48:33;;;;;;;12.43;4.60;;;15.80;91.10;;;;;;5066859;28;20184;-69
2022/05/21 06:51:05;;;;;;;11.23;4.07;;;15.90;91.70;;;;;;5076823;28;20192;-70
2022/05/21 06:53:34;;;;;;;12.27;3.93;;;15.60;90.30;;;;;;5073272;28;20183;-72
2022/05/21 06:56:06;;;;;;;8.17;3.10;;;15.40;90.40;;;;;;5092543;28;20183;-70
2022/05/21 06:58:34;;;;;;;10.20;3.00;;;15.40;90.80;;;;;;5088661;28;20274;-71
2022/05/21 07:01:01;;;;;;;12.17;2.93;;;15.30;90.90;;;;;;5081274;28;20580;-72
2022/05/21 07:03:29;;;;;;;8.63;2.37;;;15.30;91.30;;;;;;5073506;28;20188;-73
2022/05/21 07:08:41;;;;;;;6.40;1.97;;;15.40;92.00;;;;;;5072765;28;20245;-73
2022/05/21 07:11:09;;;;;;;10.77;2.13;;;15.50;92.10;;;;;;5071814;28;20171;-73
2022/05/21 07:13:36;;;;;;;10.80;2.40;;;15.60;92.10;;;;;;5071888;28;20657;-72
2022/05/21 07:16:04;;;;;;;10.10;2.47;;;15.60;92.10;;;;;;5072409;28;20716;-72
2022/05/21 07:18:31;;;;;;;8.03;2.30;;;15.60;92.10;;;;;;5077375;28;20195;-73
2022/05/21 07:20:58;;;;;;;8.80;2.90;;;15.60;92.10;;;;;;5070755;28;20205;-73
2022/05/21 07:23:28;;;;;;;7.67;2.30;;;15.60;92.00;;;;;;5073458;28;20180;-72
2022/05/21 07:25:55;;;;;;;11.20;2.50;;;15.60;91.90;;;;;;5071815;28;20240;-72
2022/05/21 07:28:24;;;;;;;13.40;2.80;;;15.60;92.10;;;;;;5081395;28;20273;-73
2022/05/21 07:30:52;;;;;;;5.93;2.43;;;15.60;92.20;;;;;;5068898;28;20263;-73
2022/05/21 07:33:21;;;;;;;6.07;2.50;;;15.70;92.10;;;;;;5083868;28;20244;-73
2022/05/21 07:35:50;;;;;;;5.70;2.40;;;15.60;92.10;;;;;;5091385;28;20271;-73
2022/05/21 07:38:18;;;;;;;9.07;2.87;;;15.60;92.00;;;;;;5087463;28;20178;-73
2022/05/21 07:40:47;;;;;;;7.60;3.27;;;15.60;92.10;;;;;;5085733;28;20307;-73
2022/05/21 07:43:24;;;;;;;12.60;5.80;;;15.60;92.20;;;;;;5080819;28;20228;-73
2022/05/21 07:45:52;;;;;;;18.17;7.50;;;15.60;92.30;;;;;;5092179;28;20229;-73
2022/05/21 07:48:20;;;;;;;13.17;8.43;;;15.60;92.40;;;;;;5083671;28;20279;-73
2022/05/21 07:50:59;;;;;;;18.33;9.20;;;15.60;92.60;;;;;;5075573;28;20304;-72
2022/05/21 07:53:33;;;;;;;17.17;9.60;;;15.60;92.60;;;;;;5088144;28;20191;-72
2022/05/21 07:56:00;;;;;;;16.87;11.57;;;15.60;92.60;;;;;;5093495;28;20199;-73
2022/05/21 07:58:31;;;;;;;18.03;10.80;;;15.50;92.60;;;;;;5096382;28;20243;-72
2022/05/21 08:00:59;;;;;;;21.27;9.93;;;15.50;92.70;;;;;;5070658;28;20714;-73
2022/05/21 08:03:27;;;;;;;19.60;11.03;;;15.50;92.70;;;;;;5055828;28;20247;-73
2022/05/21 08:05:55;;;;;;;12.80;9.20;;;15.50;92.90;;;;;;5078385;28;20236;-72
2022/05/21 08:08:25;;;;;;;19.67;10.57;;;15.40;92.90;;;;;;5090378;28;20184;-72
2022/05/21 08:10:53;;;;;;;17.20;9.93;;;15.30;93.00;;;;;;5089995;28;20254;-73
2022/05/21 08:13:20;;;;;;;17.33;7.10;;;15.30;93.10;;;;;;5062755;28;20183;-74
2022/05/21 08:15:48;;;;;;;9.13;6.13;;;15.30;93.10;;;;;;5074545;28;20187;-74
2022/05/21 08:18:15;;;;;;;12.20;5.47;;;15.30;93.20;;;;;;5074013;28;20578;-73
2022/05/21 08:20:43;;;;;;;8.47;5.03;;;15.20;93.10;;;;;;5090930;28;20179;-73
2022/05/21 08:28:47;;;;;;;9.47;6.00;;;15.20;93.20;;;;;;5074618;28;20184;-73
2022/05/21 08:31:15;;;;;;;11.80;6.37;;;15.20;93.30;;;;;;5074557;28;20583;-73
2022/05/21 08:33:43;;;;;;;11.53;6.27;;;15.30;93.40;;;;;;5074926;28;20177;-73
2022/05/21 08:36:10;;;;;;;11.90;8.77;;;15.30;93.40;;;;;;5055667;28;20509;-73
2022/05/21 08:38:38;;;;;;;8.60;6.90;;;15.30;93.40;;;;;;5086745;28;20216;-73
2022/05/21 08:41:18;;;;;;;16.57;7.57;;;15.30;93.40;;;;;;5090303;28;20620;-73
2022/05/21 08:43:56;;;;;;;11.07;6.30;;;15.20;93.40;;;;;;5075345;28;20215;-74
2022/05/21 08:46:47;;;;;;;9.30;4.67;;;15.20;93.40;;;;;;5076590;28;20279;-74
2022/05/21 08:49:24;;;;;;;9.73;5.00;;;15.20;93.40;;;;;;5095086;28;20239;-74
2022/05/21 08:52:14;;;;;;;7.90;4.47;;;15.10;93.20;;;;;;5086874;28;20186;-74
2022/05/21 08:54:45;;;;;;;11.30;6.20;;;15.10;93.20;;;;;;5059320;28;20311;-74
2022/05/21 08:57:41;;;;;;;15.63;6.70;;;15.10;93.40;;;;;;5074174;28;20175;-73
2022/05/21 09:00:15;;;;;;;10.80;6.00;;;15.10;93.50;;;;;;5052945;28;20552;-76
2022/05/21 09:02:42;;;;;;;13.33;7.40;;;15.20;93.40;;;;;;5055209;28;20211;-74
2022/05/21 09:05:13;;;;;;;13.60;6.60;;;15.10;93.40;;;;;;5059258;28;20267;-73
2022/05/21 09:07:49;;;;;;;14.20;6.30;;;15.20;93.50;;;;;;5055254;28;20179;-75
2022/05/21 09:10:50;;;;;;;11.83;6.10;;;15.20;93.40;;;;;;5089990;28;20519;-74
2022/05/21 09:13:44;;;;;;;12.83;6.53;;;15.10;93.40;;;;;;5093256;28;20178;-73
2022/05/21 09:19:08;;;;;;;14.97;7.53;;;15.00;93.70;;;;;;5075036;28;20258;-74
2022/05/21 09:21:43;;;;;;;18.70;9.47;;;15.10;93.80;;;;;;5074727;28;20261;-74
2022/05/21 09:24:30;;;;;;;13.90;7.77;;;15.00;93.70;;;;;;5074855;28;20262;-74
2022/05/21 09:26:57;;;;;;;16.80;8.63;;;15.00;93.80;;;;;;5074507;28;20179;-74
2022/05/21 09:29:33;;;;;;;11.97;8.20;;;14.90;93.90;;;;;;5072456;28;20715;-75
2022/05/21 09:32:23;;;;;;;13.33;8.63;;;14.90;94.00;;;;;;5074886;28;20277;-74
2022/05/21 09:35:21;;;;;;;18.70;9.03;;;14.90;94.10;;;;;;5093979;28;20656;-74
2022/05/21 09:37:48;;;;;;;19.73;12.53;;;15.00;94.20;;;;;;5087407;28;20245;-74
2022/05/21 09:40:38;;;;;;;18.50;12.70;;;15.00;94.20;;;;;;5074300;28;20172;-74
2022/05/21 09:46:22;;;;;;;15.87;11.63;;;15.00;94.30;;;;;;5091005;28;20196;-74
2022/05/21 09:48:51;;;;;;;17.33;10.77;;;15.00;94.30;;;;;;5073964;28;20184;-73
2022/05/21 09:51:30;;;;;;;20.63;11.77;;;15.10;94.20;;;;;;5074023;28;20656;-73
2022/05/21 09:53:59;;;;;;;301.83;112.93;;;15.00;94.20;;;;;;5072538;28;20168;-73
2022/05/21 09:56:33;;;;;;;51.00;24.00;;;15.00;94.30;;;;;;5092195;28;20276;-73
2022/05/21 09:59:19;;;;;;;36.90;16.63;;;15.00;94.20;;;;;;5075378;28;20217;-73
2022/05/21 10:01:56;;;;;;;14.83;8.83;;;15.10;94.30;;;;;;5073529;28;20328;-73
2022/05/21 10:04:36;;;;;;;17.03;9.87;;;15.10;94.20;;;;;;5053568;28;20176;-74
2022/05/21 10:10:59;;;;;;;14.87;8.70;;;15.10;94.10;;;;;;5054688;28;20187;-74
2022/05/21 10:13:47;;;;;;;11.93;8.70;;;15.10;94.20;;;;;;5060688;28;20183;-74
2022/05/21 10:16:32;;;;;;;20.17;10.03;;;15.10;94.10;;;;;;5088266;28;20216;-74
2022/05/21 10:19:22;;;;;;;18.37;10.20;;;15.10;94.20;;;;;;5073344;28;20177;-75
2022/05/21 10:22:11;;;;;;;19.47;8.43;;;15.20;94.20;;;;;;5072796;28;20276;-72
2022/05/21 10:25:00;;;;;;;12.40;5.43;;;15.10;94.10;;;;;;5073425;28;20169;-73
2022/05/21 10:27:39;;;;;;;7.30;3.43;;;15.00;93.80;;;;;;5073193;28;20272;-72
2022/05/21 10:30:28;;;;;;;9.00;4.77;;;15.00;93.60;;;;;;5073090;28;20239;-71
2022/05/21 10:33:10;;;;;;;13.03;7.40;;;15.00;93.60;;;;;;5072029;28;20286;-72
2022/05/21 10:35:56;;;;;;;13.37;7.80;;;15.00;93.60;;;;;;5073457;28;20634;-72
2022/05/21 10:39:19;;;;;;;14.73;8.47;;;15.00;93.70;;;;;;5071546;28;20194;-72
2022/05/21 10:42:04;;;;;;;14.73;6.37;;;15.10;93.80;;;;;;5090096;28;20214;-72
2022/05/21 10:45:02;;;;;;;10.57;6.30;;;15.00;93.70;;;;;;5083788;28;20244;-72
2022/05/21 10:47:48;;;;;;;15.10;6.97;;;15.00;93.80;;;;;;5084771;28;20191;-71
2022/05/21 10:50:25;;;;;;;12.20;7.80;;;15.00;93.90;;;;;;5085455;28;20676;-71
2022/05/21 10:53:19;;;;;;;13.03;7.63;;;15.00;94.00;;;;;;5082265;28;20541;-73
2022/05/21 10:56:05;;;;;;;12.63;6.03;;;15.00;94.00;;;;;;5081295;28;20187;-73
2022/05/21 10:58:53;;;;;;;7.83;5.63;;;14.90;94.00;;;;;;5074609;28;20220;-72
2022/05/21 11:01:36;;;;;;;8.37;5.90;;;14.90;94.00;;;;;;5093066;28;20214;-72
2022/05/21 11:04:40;;;;;;;6.60;4.93;;;14.90;94.00;;;;;;5092855;28;20180;-72
2022/05/21 11:07:16;;;;;;;10.30;5.03;;;14.90;93.90;;;;;;5071750;28;20186;-72
2022/05/21 11:09:55;;;;;;;8.20;6.10;;;14.90;94.00;;;;;;5072573;28;20236;-71
2022/05/21 11:12:44;;;;;;;6.43;5.30;;;14.90;93.80;;;;;;5072634;28;20637;-72
2022/05/21 11:15:41;;;;;;;9.23;5.60;;;14.90;93.70;;;;;;5091102;28;20705;-71
2022/05/21 11:18:37;;;;;;;7.93;5.20;;;14.80;93.70;;;;;;5073571;28;20191;-72
2022/05/21 11:21:18;;;;;;;10.43;5.87;;;14.80;93.80;;;;;;5070795;28;20206;-72
2022/05/21 11:23:54;;;;;;;7.40;5.53;;;14.80;94.00;;;;;;5070066;28;20178;-72
2022/05/21 11:26:34;;;;;;;9.93;6.50;;;14.80;94.10;;;;;;5069619;28;20654;-72
2022/05/21 11:29:13;;;;;;;8.67;6.57;;;14.80;94.20;;;;;;5069222;28;20203;-73
2022/05/21 11:38:30;;;;;;;12.93;6.87;;;14.80;94.20;;;;;;5050624;28;20253;-74
2022/05/21 11:47:15;;;;;;;7.40;6.70;;;14.80;94.30;;;;;;5079922;28;20227;-72
2022/05/21 11:49:46;;;;;;;11.07;6.60;;;14.80;94.30;;;;;;5091588;28;20196;-72
2022/05/21 11:52:29;;;;;;;14.27;7.00;;;14.80;94.30;;;;;;5071898;28;20205;-72
2022/05/21 11:54:56;;;;;;;11.87;6.67;;;14.70;94.30;;;;;;5072585;28;20187;-72
2022/05/21 11:57:40;;;;;;;8.03;6.33;;;14.70;94.30;;;;;;5072339;28;20183;-73
2022/05/21 12:00:19;;;;;;;11.67;7.27;;;14.70;94.50;;;;;;5070565;28;20187;-73
2022/05/21 12:02:58;;;;;;;11.40;8.53;;;14.70;94.60;;;;;;5071744;28;20232;-73
2022/05/21 12:05:35;;;;;;;10.97;7.67;;;14.70;94.60;;;;;;5092904;28;20530;-72
2022/05/21 12:08:36;;;;;;;12.13;8.47;;;14.80;94.60;;;;;;5068726;28;20278;-72
2022/05/21 12:11:06;;;;;;;13.00;10.23;;;14.80;94.60;;;;;;5071352;28;20673;-73
2022/05/21 12:13:39;;;;;;;12.43;9.20;;;14.80;94.70;;;;;;5074383;28;20628;-72
2022/05/21 12:16:20;;;;;;;12.30;7.47;;;14.80;94.60;;;;;;5072029;28;20168;-72
2022/05/21 12:18:51;;;;;;;14.60;8.00;;;14.70;94.60;;;;;;5072868;28;20184;-72
2022/05/21 12:23:58;;;;;;;8.13;7.23;;;14.70;94.80;;;;;;5070791;28;20187;-72
2022/05/21 12:26:29;;;;;;;13.30;9.17;;;14.70;94.90;;;;;;5089111;28;20179;-73
2022/05/21 12:29:18;;;;;;;11.67;9.07;;;14.80;94.80;;;;;;5095077;28;20712;-72
2022/05/21 12:31:50;;;;;;;11.40;10.27;;;14.70;94.90;;;;;;5055653;28;20233;-72
2022/05/21 12:34:23;;;;;;;15.50;9.63;;;14.80;95.00;;;;;;5061151;28;20266;-72
2022/05/21 12:37:07;;;;;;;12.20;9.93;;;14.70;94.90;;;;;;5074790;28;20183;-73
2022/05/21 12:39:34;;;;;;;15.40;9.17;;;14.70;95.00;;;;;;5075096;28;20208;-73
2022/05/21 12:42:33;;;;;;;12.03;8.57;;;14.70;95.00;;;;;;5074980;28;20298;-72
2022/05/21 12:45:01;;;;;;;15.63;8.17;;;14.70;95.00;;;;;;5075850;28;20650;-74
2022/05/21 12:47:36;;;;;;;9.43;7.93;;;14.70;95.10;;;;;;5075601;28;20174;-73
2022/05/21 12:50:12;;;;;;;10.90;7.40;;;14.60;95.10;;;;;;5075026;28;20277;-72
2022/05/21 12:52:57;;;;;;;10.17;8.00;;;14.70;95.20;;;;;;5075720;28;20242;-72
2022/05/21 12:55:28;;;;;;;8.63;7.53;;;14.70;95.20;;;;;;5061562;28;20175;-72
2022/05/21 12:57:58;;;;;;;9.13;7.87;;;14.70;95.20;;;;;;5074306;28;20175;-72
2022/05/21 13:00:31;;;;;;;9.67;8.07;;;14.80;95.20;;;;;;5073740;28;20179;-72
2022/05/21 13:03:10;;;;;;;9.33;7.60;;;14.80;95.20;;;;;;5078633;28;20227;-72
2022/05/21 13:05:53;;;;;;;8.90;7.73;;;14.70;95.20;;;;;;5074498;28;20178;-72
2022/05/21 13:08:21;;;;;;;9.83;7.37;;;14.70;95.20;;;;;;5073946;28;20183;-73
2022/05/21 13:11:19;;;;;;;11.47;7.90;;;14.70;95.20;;;;;;5074552;28;20178;-72
2022/05/21 13:13:54;;;;;;;8.90;6.80;;;14.60;95.10;;;;;;5074159;28;20184;-72
2022/05/21 13:16:23;;;;;;;9.50;6.57;;;14.60;95.10;;;;;;5074729;28;20663;-72
2022/05/21 13:19:28;;;;;;;11.80;7.50;;;14.50;95.00;;;;;;5080786;28;20175;-72
2022/05/21 13:22:06;;;;;;;7.57;6.10;;;14.50;95.10;;;;;;5074509;28;20302;-72
2022/05/21 13:24:57;;;;;;;11.13;6.27;;;14.40;95.10;;;;;;5074725;28;20164;-72
2022/05/21 13:27:25;;;;;;;7.07;6.43;;;14.40;95.00;;;;;;5074168;28;20171;-73
2022/05/21 13:29:54;;;;;;;9.40;7.47;;;14.30;95.00;;;;;;5074518;28;20237;-72
2022/05/21 13:32:31;;;;;;;12.53;7.33;;;14.30;95.00;;;;;;5072372;28;20266;-72
2022/05/21 13:35:01;;;;;;;10.30;7.70;;;14.30;95.10;;;;;;5074073;28;20214;-73
2022/05/21 13:37:34;;;;;;;10.60;7.13;;;14.30;95.10;;;;;;5092966;28;20177;-72
2022/05/21 13:40:08;;;;;;;8.70;7.80;;;14.30;95.20;;;;;;5074123;28;20190;-72
2022/05/21 13:42:38;;;;;;;8.33;7.53;;;14.30;95.20;;;;;;5073890;28;20242;-72
2022/05/21 13:45:12;;;;;;;8.23;7.43;;;14.30;95.20;;;;;;5073780;28;20169;-72
2022/05/21 13:47:50;;;;;;;9.23;7.77;;;14.30;95.30;;;;;;5073814;28;20652;-73
2022/05/21 13:50:24;;;;;;;9.93;8.40;;;14.30;95.30;;;;;;5073987;28;20665;-72
2022/05/21 13:52:52;;;;;;;8.80;7.90;;;14.20;95.30;;;;;;5074719;28;20181;-73
2022/05/21 13:55:20;;;;;;;10.17;6.83;;;14.30;95.20;;;;;;5069889;28;20539;-72